sensor_id;sensor_type;location;lat;lon;timestamp;P1;durP1;ratioP1;P2;durP2;ratioP2
78563;SDS011;67856;47.754;19.088;2023-04-09T00:01:29;2.50;;;1.90;;
78563;SDS011;67856;47.754;19.088;2023-04-09T00:04:31;2.70;;;1.92;;
78563;SDS011;67856;47.754;19.088;2023-04-09T00:07:34;2.30;;;1.90;;
78563;SDS011;67856;47.754;19.088;2023-04-09T00:10:36;3.40;;;2.17;;
78563;SDS011;67856;47.754;19.088;2023-04-09T00:13:39;3.20;;;2.10;;
78563;SDS011;67856;47.754;19.088;2023-04-09T00:16:41;3.05;;;2.17;;
78563;SDS011;67856;47.754;19.088;2023-04-09T00:19:44;3.05;;;2.03;;
78563;SDS011;67856;47.754;19.088;2023-04-09T00:22:46;2.55;;;1.90;;
78563;SDS011;67856;47.754;19.088;2023-04-09T00:25:49;2.83;;;1.87;;
78563;SDS011;67856;47.754;19.088;2023-04-09T00:28:52;3.30;;;1.93;;
78563;SDS011;67856;47.754;19.088;2023-04-09T00:31:54;2.47;;;1.90;;
78563;SDS011;67856;47.754;19.088;2023-04-09T00:34:57;2.40;;;1.80;;
78563;SDS011;67856;47.754;19.088;2023-04-09T00:37:59;2.33;;;1.67;;
78563;SDS011;67856;47.754;19.088;2023-04-09T00:41:02;2.67;;;1.73;;
78563;SDS011;67856;47.754;19.088;2023-04-09T00:44:04;3.00;;;2.00;;
78563;SDS011;67856;47.754;19.088;2023-04-09T00:47:06;2.30;;;1.63;;
78563;SDS011;67856;47.754;19.088;2023-04-09T00:50:09;2.45;;;1.83;;
78563;SDS011;67856;47.754;19.088;2023-04-09T00:53:11;2.70;;;1.92;;
78563;SDS011;67856;47.754;19.088;2023-04-09T00:56:15;2.27;;;1.70;;
78563;SDS011;67856;47.754;19.088;2023-04-09T00:59:18;2.70;;;2.10;;
78563;SDS011;67856;47.754;19.088;2023-04-09T01:02:20;2.63;;;1.80;;
78563;SDS011;67856;47.754;19.088;2023-04-09T01:05:24;1.98;;;1.58;;
78563;SDS011;67856;47.754;19.088;2023-04-09T01:15:32;2.47;;;1.77;;
78563;SDS011;67856;47.754;19.088;2023-04-09T01:18:47;2.60;;;2.00;;
78563;SDS011;67856;47.754;19.088;2023-04-09T01:21:53;2.30;;;1.70;;
78563;SDS011;67856;47.754;19.088;2023-04-09T01:25:06;2.20;;;1.67;;
78563;SDS011;67856;47.754;19.088;2023-04-09T01:28:18;2.33;;;1.70;;
78563;SDS011;67856;47.754;19.088;2023-04-09T01:31:35;3.30;;;2.07;;
78563;SDS011;67856;47.754;19.088;2023-04-09T01:34:40;3.10;;;1.90;;
78563;SDS011;67856;47.754;19.088;2023-04-09T01:37:42;2.47;;;1.77;;
78563;SDS011;67856;47.754;19.088;2023-04-09T01:40:45;2.78;;;1.90;;
78563;SDS011;67856;47.754;19.088;2023-04-09T01:43:49;2.93;;;1.90;;
78563;SDS011;67856;47.754;19.088;2023-04-09T01:46:53;2.77;;;2.03;;
78563;SDS011;67856;47.754;19.088;2023-04-09T01:49:56;3.00;;;1.88;;
78563;SDS011;67856;47.754;19.088;2023-04-09T01:52:59;2.72;;;1.90;;
78563;SDS011;67856;47.754;19.088;2023-04-09T01:56:02;2.65;;;1.83;;
78563;SDS011;67856;47.754;19.088;2023-04-09T01:59:05;2.57;;;1.90;;
78563;SDS011;67856;47.754;19.088;2023-04-09T02:02:11;2.43;;;1.90;;
78563;SDS011;67856;47.754;19.088;2023-04-09T02:05:20;2.30;;;1.70;;
78563;SDS011;67856;47.754;19.088;2023-04-09T02:08:29;2.85;;;1.80;;
78563;SDS011;67856;47.754;19.088;2023-04-09T02:11:31;2.55;;;1.90;;
78563;SDS011;67856;47.754;19.088;2023-04-09T02:14:34;2.60;;;1.80;;
78563;SDS011;67856;47.754;19.088;2023-04-09T02:17:38;2.60;;;2.00;;
78563;SDS011;67856;47.754;19.088;2023-04-09T02:20:41;2.78;;;1.80;;
78563;SDS011;67856;47.754;19.088;2023-04-09T02:23:43;2.22;;;1.70;;
78563;SDS011;67856;47.754;19.088;2023-04-09T02:26:46;2.67;;;1.80;;
78563;SDS011;67856;47.754;19.088;2023-04-09T02:29:49;1.87;;;1.50;;
78563;SDS011;67856;47.754;19.088;2023-04-09T02:32:51;2.50;;;1.70;;
78563;SDS011;67856;47.754;19.088;2023-04-09T02:35:54;2.55;;;2.00;;
78563;SDS011;67856;47.754;19.088;2023-04-09T02:38:56;2.30;;;1.80;;
78563;SDS011;67856;47.754;19.088;2023-04-09T02:41:59;2.97;;;2.10;;
78563;SDS011;67856;47.754;19.088;2023-04-09T02:45:02;2.67;;;1.90;;
78563;SDS011;67856;47.754;19.088;2023-04-09T02:48:06;2.93;;;2.00;;
78563;SDS011;67856;47.754;19.088;2023-04-09T02:51:09;2.40;;;1.55;;
78563;SDS011;67856;47.754;19.088;2023-04-09T02:54:12;2.38;;;1.48;;
78563;SDS011;67856;47.754;19.088;2023-04-09T02:57:14;2.13;;;1.58;;
78563;SDS011;67856;47.754;19.088;2023-04-09T03:00:17;3.30;;;2.07;;
78563;SDS011;67856;47.754;19.088;2023-04-09T03:03:19;2.30;;;1.97;;
78563;SDS011;67856;47.754;19.088;2023-04-09T03:06:22;2.28;;;1.50;;
78563;SDS011;67856;47.754;19.088;2023-04-09T03:09:24;2.05;;;1.60;;
78563;SDS011;67856;47.754;19.088;2023-04-09T03:12:27;2.72;;;1.90;;
78563;SDS011;67856;47.754;19.088;2023-04-09T03:15:29;2.07;;;1.63;;
78563;SDS011;67856;47.754;19.088;2023-04-09T03:18:31;2.27;;;1.77;;
78563;SDS011;67856;47.754;19.088;2023-04-09T03:21:34;2.22;;;1.40;;
78563;SDS011;67856;47.754;19.088;2023-04-09T03:24:36;2.63;;;1.98;;
78563;SDS011;67856;47.754;19.088;2023-04-09T03:27:40;2.30;;;1.80;;
78563;SDS011;67856;47.754;19.088;2023-04-09T03:30:43;2.60;;;1.87;;
78563;SDS011;67856;47.754;19.088;2023-04-09T03:33:47;2.70;;;1.70;;
78563;SDS011;67856;47.754;19.088;2023-04-09T03:36:50;3.13;;;1.90;;
78563;SDS011;67856;47.754;19.088;2023-04-09T03:40:02;2.45;;;1.70;;
78563;SDS011;67856;47.754;19.088;2023-04-09T03:43:05;2.25;;;1.60;;
78563;SDS011;67856;47.754;19.088;2023-04-09T03:46:13;2.63;;;1.90;;
78563;SDS011;67856;47.754;19.088;2023-04-09T03:49:19;2.60;;;1.90;;
78563;SDS011;67856;47.754;19.088;2023-04-09T03:52:21;2.20;;;1.65;;
78563;SDS011;67856;47.754;19.088;2023-04-09T03:55:32;2.47;;;1.83;;
78563;SDS011;67856;47.754;19.088;2023-04-09T03:58:39;2.38;;;1.88;;
78563;SDS011;67856;47.754;19.088;2023-04-09T04:01:43;2.20;;;1.80;;
78563;SDS011;67856;47.754;19.088;2023-04-09T04:04:47;2.17;;;1.50;;
78563;SDS011;67856;47.754;19.088;2023-04-09T04:07:50;2.40;;;1.60;;
78563;SDS011;67856;47.754;19.088;2023-04-09T04:11:03;2.55;;;1.75;;
78563;SDS011;67856;47.754;19.088;2023-04-09T04:14:07;2.47;;;1.83;;
78563;SDS011;67856;47.754;19.088;2023-04-09T04:17:09;2.43;;;1.67;;
78563;SDS011;67856;47.754;19.088;2023-04-09T04:20:13;2.17;;;1.70;;
78563;SDS011;67856;47.754;19.088;2023-04-09T04:23:28;2.17;;;1.60;;
78563;SDS011;67856;47.754;19.088;2023-04-09T04:26:43;2.22;;;1.60;;
78563;SDS011;67856;47.754;19.088;2023-04-09T04:29:49;2.63;;;1.65;;
78563;SDS011;67856;47.754;19.088;2023-04-09T04:33:07;2.30;;;1.60;;
78563;SDS011;67856;47.754;19.088;2023-04-09T04:36:17;2.53;;;1.87;;
78563;SDS011;67856;47.754;19.088;2023-04-09T04:39:25;2.03;;;1.63;;
78563;SDS011;67856;47.754;19.088;2023-04-09T04:42:42;1.83;;;1.45;;
78563;SDS011;67856;47.754;19.088;2023-04-09T04:45:48;1.95;;;1.42;;
78563;SDS011;67856;47.754;19.088;2023-04-09T04:48:56;2.77;;;1.77;;
78563;SDS011;67856;47.754;19.088;2023-04-09T04:51:59;2.40;;;1.87;;
78563;SDS011;67856;47.754;19.088;2023-04-09T04:55:01;2.58;;;1.73;;
78563;SDS011;67856;47.754;19.088;2023-04-09T04:58:04;2.83;;;1.90;;
78563;SDS011;67856;47.754;19.088;2023-04-09T05:01:16;2.45;;;1.98;;
78563;SDS011;67856;47.754;19.088;2023-04-09T05:04:19;2.27;;;1.77;;
78563;SDS011;67856;47.754;19.088;2023-04-09T05:07:21;2.60;;;2.00;;
78563;SDS011;67856;47.754;19.088;2023-04-09T05:10:27;2.35;;;1.70;;
78563;SDS011;67856;47.754;19.088;2023-04-09T05:13:31;3.05;;;1.73;;
78563;SDS011;67856;47.754;19.088;2023-04-09T05:16:36;3.20;;;1.92;;
78563;SDS011;67856;47.754;19.088;2023-04-09T05:19:40;2.53;;;1.80;;
78563;SDS011;67856;47.754;19.088;2023-04-09T05:22:43;3.00;;;1.97;;
78563;SDS011;67856;47.754;19.088;2023-04-09T05:25:49;2.42;;;1.90;;
78563;SDS011;67856;47.754;19.088;2023-04-09T05:29:01;2.33;;;1.73;;
78563;SDS011;67856;47.754;19.088;2023-04-09T05:32:03;2.40;;;1.80;;
78563;SDS011;67856;47.754;19.088;2023-04-09T05:35:10;2.90;;;1.93;;
78563;SDS011;67856;47.754;19.088;2023-04-09T05:38:17;2.30;;;1.63;;
78563;SDS011;67856;47.754;19.088;2023-04-09T05:41:27;2.97;;;1.80;;
78563;SDS011;67856;47.754;19.088;2023-04-09T05:44:47;2.00;;;1.50;;
78563;SDS011;67856;47.754;19.088;2023-04-09T05:47:53;2.22;;;1.70;;
78563;SDS011;67856;47.754;19.088;2023-04-09T05:50:57;1.97;;;1.60;;
78563;SDS011;67856;47.754;19.088;2023-04-09T05:54:02;2.50;;;1.70;;
78563;SDS011;67856;47.754;19.088;2023-04-09T05:57:08;2.58;;;1.80;;
78563;SDS011;67856;47.754;19.088;2023-04-09T06:00:14;2.78;;;1.90;;
78563;SDS011;67856;47.754;19.088;2023-04-09T06:03:17;2.40;;;1.98;;
78563;SDS011;67856;47.754;19.088;2023-04-09T06:06:20;2.27;;;1.67;;
78563;SDS011;67856;47.754;19.088;2023-04-09T06:09:23;2.60;;;1.77;;
78563;SDS011;67856;47.754;19.088;2023-04-09T06:12:25;2.65;;;1.90;;
78563;SDS011;67856;47.754;19.088;2023-04-09T06:15:27;2.78;;;2.00;;
78563;SDS011;67856;47.754;19.088;2023-04-09T06:18:30;2.95;;;1.73;;
78563;SDS011;67856;47.754;19.088;2023-04-09T06:21:32;2.90;;;2.00;;
78563;SDS011;67856;47.754;19.088;2023-04-09T06:24:35;2.50;;;1.70;;
78563;SDS011;67856;47.754;19.088;2023-04-09T06:27:37;3.30;;;2.25;;
78563;SDS011;67856;47.754;19.088;2023-04-09T06:30:40;2.85;;;2.05;;
78563;SDS011;67856;47.754;19.088;2023-04-09T06:33:42;3.20;;;2.25;;
78563;SDS011;67856;47.754;19.088;2023-04-09T06:36:45;2.77;;;2.17;;
78563;SDS011;67856;47.754;19.088;2023-04-09T06:39:47;2.97;;;2.07;;
78563;SDS011;67856;47.754;19.088;2023-04-09T06:43:02;2.53;;;1.70;;
78563;SDS011;67856;47.754;19.088;2023-04-09T06:46:12;2.70;;;1.90;;
78563;SDS011;67856;47.754;19.088;2023-04-09T06:49:18;3.00;;;1.90;;
78563;SDS011;67856;47.754;19.088;2023-04-09T06:52:20;2.90;;;2.23;;
78563;SDS011;67856;47.754;19.088;2023-04-09T06:55:22;2.30;;;1.83;;
78563;SDS011;67856;47.754;19.088;2023-04-09T06:58:25;2.70;;;1.98;;
78563;SDS011;67856;47.754;19.088;2023-04-09T07:01:27;2.38;;;1.80;;
78563;SDS011;67856;47.754;19.088;2023-04-09T07:04:30;2.70;;;2.00;;
78563;SDS011;67856;47.754;19.088;2023-04-09T07:07:32;2.10;;;1.70;;
78563;SDS011;67856;47.754;19.088;2023-04-09T07:10:35;2.93;;;1.97;;
78563;SDS011;67856;47.754;19.088;2023-04-09T07:13:37;2.05;;;1.60;;
78563;SDS011;67856;47.754;19.088;2023-04-09T07:16:40;2.47;;;1.80;;
78563;SDS011;67856;47.754;19.088;2023-04-09T07:19:42;1.90;;;1.40;;
78563;SDS011;67856;47.754;19.088;2023-04-09T07:22:44;1.70;;;1.30;;
78563;SDS011;67856;47.754;19.088;2023-04-09T07:25:47;2.17;;;1.33;;
78563;SDS011;67856;47.754;19.088;2023-04-09T07:28:49;1.80;;;1.35;;
78563;SDS011;67856;47.754;19.088;2023-04-09T07:31:52;1.77;;;1.42;;
78563;SDS011;67856;47.754;19.088;2023-04-09T07:34:55;2.00;;;1.40;;
78563;SDS011;67856;47.754;19.088;2023-04-09T07:37:58;2.37;;;1.40;;
78563;SDS011;67856;47.754;19.088;2023-04-09T07:41:00;1.57;;;1.20;;
78563;SDS011;67856;47.754;19.088;2023-04-09T07:44:03;1.50;;;1.25;;
78563;SDS011;67856;47.754;19.088;2023-04-09T07:47:07;1.73;;;1.45;;
78563;SDS011;67856;47.754;19.088;2023-04-09T07:50:10;1.92;;;1.30;;
78563;SDS011;67856;47.754;19.088;2023-04-09T07:53:13;1.60;;;1.30;;
78563;SDS011;67856;47.754;19.088;2023-04-09T07:56:15;1.80;;;1.30;;
78563;SDS011;67856;47.754;19.088;2023-04-09T07:59:18;1.88;;;1.30;;
78563;SDS011;67856;47.754;19.088;2023-04-09T08:02:20;1.48;;;1.20;;
78563;SDS011;67856;47.754;19.088;2023-04-09T08:05:24;1.50;;;1.27;;
78563;SDS011;67856;47.754;19.088;2023-04-09T08:08:26;1.43;;;1.23;;
78563;SDS011;67856;47.754;19.088;2023-04-09T08:11:29;1.70;;;1.30;;
78563;SDS011;67856;47.754;19.088;2023-04-09T08:14:31;1.60;;;1.23;;
78563;SDS011;67856;47.754;19.088;2023-04-09T08:17:34;1.80;;;1.33;;
78563;SDS011;67856;47.754;19.088;2023-04-09T08:20:38;2.00;;;1.48;;
78563;SDS011;67856;47.754;19.088;2023-04-09T08:23:46;1.80;;;1.33;;
78563;SDS011;67856;47.754;19.088;2023-04-09T08:26:48;1.93;;;1.43;;
78563;SDS011;67856;47.754;19.088;2023-04-09T08:29:51;1.52;;;1.30;;
78563;SDS011;67856;47.754;19.088;2023-04-09T08:32:53;1.70;;;1.40;;
78563;SDS011;67856;47.754;19.088;2023-04-09T08:35:56;1.85;;;1.45;;
78563;SDS011;67856;47.754;19.088;2023-04-09T08:38:58;1.80;;;1.50;;
78563;SDS011;67856;47.754;19.088;2023-04-09T08:42:01;1.90;;;1.40;;
78563;SDS011;67856;47.754;19.088;2023-04-09T08:45:04;1.30;;;1.10;;
78563;SDS011;67856;47.754;19.088;2023-04-09T08:48:12;1.80;;;1.30;;
78563;SDS011;67856;47.754;19.088;2023-04-09T08:51:15;1.48;;;1.30;;
78563;SDS011;67856;47.754;19.088;2023-04-09T08:54:19;1.53;;;1.23;;
78563;SDS011;67856;47.754;19.088;2023-04-09T08:57:21;2.00;;;1.20;;
78563;SDS011;67856;47.754;19.088;2023-04-09T09:00:23;2.00;;;1.60;;
78563;SDS011;67856;47.754;19.088;2023-04-09T09:03:26;1.90;;;1.30;;
78563;SDS011;67856;47.754;19.088;2023-04-09T09:06:29;1.83;;;1.50;;
78563;SDS011;67856;47.754;19.088;2023-04-09T09:09:51;1.80;;;1.30;;
78563;SDS011;67856;47.754;19.088;2023-04-09T09:12:58;1.83;;;1.40;;
78563;SDS011;67856;47.754;19.088;2023-04-09T09:16:11;1.77;;;1.50;;
78563;SDS011;67856;47.754;19.088;2023-04-09T09:22:27;2.58;;;1.60;;
78563;SDS011;67856;47.754;19.088;2023-04-09T09:25:31;1.90;;;1.30;;
78563;SDS011;67856;47.754;19.088;2023-04-09T09:28:38;1.90;;;1.27;;
78563;SDS011;67856;47.754;19.088;2023-04-09T09:31:45;2.05;;;1.42;;
78563;SDS011;67856;47.754;19.088;2023-04-09T09:34:56;1.80;;;1.27;;
78563;SDS011;67856;47.754;19.088;2023-04-09T09:38:01;1.90;;;1.50;;
78563;SDS011;67856;47.754;19.088;2023-04-09T09:41:17;1.70;;;1.30;;
78563;SDS011;67856;47.754;19.088;2023-04-09T09:44:30;1.87;;;1.40;;
78563;SDS011;67856;47.754;19.088;2023-04-09T09:47:33;1.90;;;1.38;;
78563;SDS011;67856;47.754;19.088;2023-04-09T09:50:36;2.67;;;1.85;;
78563;SDS011;67856;47.754;19.088;2023-04-09T09:53:42;2.03;;;1.35;;
78563;SDS011;67856;47.754;19.088;2023-04-09T09:56:48;3.07;;;1.80;;
78563;SDS011;67856;47.754;19.088;2023-04-09T09:59:53;2.17;;;1.43;;
78563;SDS011;67856;47.754;19.088;2023-04-09T10:02:58;2.22;;;1.70;;
78563;SDS011;67856;47.754;19.088;2023-04-09T10:06:07;2.55;;;1.95;;
78563;SDS011;67856;47.754;19.088;2023-04-09T10:09:10;2.13;;;1.50;;
78563;SDS011;67856;47.754;19.088;2023-04-09T10:12:13;2.53;;;1.70;;
78563;SDS011;67856;47.754;19.088;2023-04-09T10:15:15;2.47;;;1.90;;
78563;SDS011;67856;47.754;19.088;2023-04-09T10:18:19;3.50;;;1.60;;
78563;SDS011;67856;47.754;19.088;2023-04-09T10:21:23;2.42;;;1.70;;
78563;SDS011;67856;47.754;19.088;2023-04-09T10:24:28;2.35;;;1.85;;
78563;SDS011;67856;47.754;19.088;2023-04-09T10:27:31;2.57;;;1.73;;
78563;SDS011;67856;47.754;19.088;2023-04-09T10:30:34;2.27;;;1.70;;
78563;SDS011;67856;47.754;19.088;2023-04-09T10:33:37;2.53;;;1.75;;
78563;SDS011;67856;47.754;19.088;2023-04-09T10:36:43;2.67;;;1.65;;
78563;SDS011;67856;47.754;19.088;2023-04-09T10:39:47;2.92;;;2.00;;
78563;SDS011;67856;47.754;19.088;2023-04-09T10:42:50;2.50;;;1.80;;
78563;SDS011;67856;47.754;19.088;2023-04-09T10:45:53;2.40;;;1.73;;
78563;SDS011;67856;47.754;19.088;2023-04-09T10:49:11;3.65;;;2.15;;
78563;SDS011;67856;47.754;19.088;2023-04-09T10:52:14;2.92;;;1.92;;
78563;SDS011;67856;47.754;19.088;2023-04-09T10:55:36;3.42;;;2.15;;
78563;SDS011;67856;47.754;19.088;2023-04-09T10:58:41;2.73;;;1.60;;
78563;SDS011;67856;47.754;19.088;2023-04-09T11:01:51;2.90;;;2.13;;
78563;SDS011;67856;47.754;19.088;2023-04-09T11:08:31;3.28;;;2.10;;
78563;SDS011;67856;47.754;19.088;2023-04-09T11:11:34;2.38;;;1.90;;
78563;SDS011;67856;47.754;19.088;2023-04-09T11:14:37;3.07;;;2.23;;
78563;SDS011;67856;47.754;19.088;2023-04-09T11:17:40;4.17;;;2.83;;
78563;SDS011;67856;47.754;19.088;2023-04-09T11:20:42;4.38;;;2.88;;
78563;SDS011;67856;47.754;19.088;2023-04-09T11:23:50;3.92;;;2.40;;
78563;SDS011;67856;47.754;19.088;2023-04-09T11:26:53;3.65;;;2.10;;
78563;SDS011;67856;47.754;19.088;2023-04-09T11:29:56;2.80;;;2.07;;
78563;SDS011;67856;47.754;19.088;2023-04-09T11:32:58;2.30;;;1.80;;
78563;SDS011;67856;47.754;19.088;2023-04-09T11:36:03;2.67;;;1.80;;
78563;SDS011;67856;47.754;19.088;2023-04-09T11:39:06;3.33;;;2.10;;
78563;SDS011;67856;47.754;19.088;2023-04-09T11:42:15;2.22;;;1.90;;
78563;SDS011;67856;47.754;19.088;2023-04-09T11:45:18;2.73;;;2.00;;
78563;SDS011;67856;47.754;19.088;2023-04-09T11:48:21;3.60;;;2.70;;
78563;SDS011;67856;47.754;19.088;2023-04-09T11:51:26;2.83;;;2.08;;
78563;SDS011;67856;47.754;19.088;2023-04-09T11:54:32;2.30;;;1.83;;
78563;SDS011;67856;47.754;19.088;2023-04-09T11:57:42;2.90;;;1.83;;
78563;SDS011;67856;47.754;19.088;2023-04-09T12:00:45;2.17;;;1.60;;
78563;SDS011;67856;47.754;19.088;2023-04-09T12:03:51;3.80;;;2.10;;
78563;SDS011;67856;47.754;19.088;2023-04-09T12:06:55;3.00;;;2.03;;
78563;SDS011;67856;47.754;19.088;2023-04-09T12:10:03;2.38;;;1.75;;
78563;SDS011;67856;47.754;19.088;2023-04-09T12:13:08;2.22;;;1.83;;
78563;SDS011;67856;47.754;19.088;2023-04-09T12:16:17;2.47;;;1.80;;
78563;SDS011;67856;47.754;19.088;2023-04-09T12:19:24;2.53;;;1.87;;
78563;SDS011;67856;47.754;19.088;2023-04-09T12:22:26;2.60;;;1.63;;
78563;SDS011;67856;47.754;19.088;2023-04-09T12:25:29;3.05;;;2.15;;
78563;SDS011;67856;47.754;19.088;2023-04-09T12:28:54;2.58;;;2.20;;
78563;SDS011;67856;47.754;19.088;2023-04-09T12:31:57;2.83;;;1.93;;
78563;SDS011;67856;47.754;19.088;2023-04-09T12:34:59;2.73;;;2.00;;
78563;SDS011;67856;47.754;19.088;2023-04-09T12:38:02;3.17;;;2.38;;
78563;SDS011;67856;47.754;19.088;2023-04-09T12:41:06;2.53;;;1.85;;
78563;SDS011;67856;47.754;19.088;2023-04-09T12:44:08;2.75;;;1.90;;
78563;SDS011;67856;47.754;19.088;2023-04-09T12:47:11;2.07;;;1.43;;
78563;SDS011;67856;47.754;19.088;2023-04-09T12:50:14;2.37;;;1.80;;
78563;SDS011;67856;47.754;19.088;2023-04-09T12:53:17;2.47;;;1.77;;
78563;SDS011;67856;47.754;19.088;2023-04-09T12:56:19;1.90;;;1.45;;
78563;SDS011;67856;47.754;19.088;2023-04-09T12:59:22;2.10;;;1.75;;
78563;SDS011;67856;47.754;19.088;2023-04-09T13:02:24;2.57;;;1.70;;
78563;SDS011;67856;47.754;19.088;2023-04-09T13:05:27;2.07;;;1.60;;
78563;SDS011;67856;47.754;19.088;2023-04-09T13:08:29;1.90;;;1.42;;
78563;SDS011;67856;47.754;19.088;2023-04-09T13:11:32;1.92;;;1.55;;
78563;SDS011;67856;47.754;19.088;2023-04-09T13:14:34;2.65;;;1.92;;
78563;SDS011;67856;47.754;19.088;2023-04-09T13:17:37;2.00;;;1.47;;
78563;SDS011;67856;47.754;19.088;2023-04-09T13:20:39;1.93;;;1.60;;
78563;SDS011;67856;47.754;19.088;2023-04-09T13:23:42;2.47;;;2.00;;
78563;SDS011;67856;47.754;19.088;2023-04-09T13:26:44;3.30;;;2.20;;
78563;SDS011;67856;47.754;19.088;2023-04-09T13:29:47;2.20;;;1.58;;
78563;SDS011;67856;47.754;19.088;2023-04-09T13:32:49;2.57;;;1.60;;
78563;SDS011;67856;47.754;19.088;2023-04-09T13:35:52;2.40;;;1.77;;
78563;SDS011;67856;47.754;19.088;2023-04-09T13:38:54;1.95;;;1.40;;
78563;SDS011;67856;47.754;19.088;2023-04-09T13:41:57;2.00;;;1.67;;
78563;SDS011;67856;47.754;19.088;2023-04-09T13:45:00;2.33;;;1.65;;
78563;SDS011;67856;47.754;19.088;2023-04-09T13:48:02;2.40;;;1.77;;
78563;SDS011;67856;47.754;19.088;2023-04-09T13:51:05;2.90;;;1.97;;
78563;SDS011;67856;47.754;19.088;2023-04-09T13:54:08;3.08;;;1.70;;
78563;SDS011;67856;47.754;19.088;2023-04-09T13:57:12;2.38;;;1.67;;
78563;SDS011;67856;47.754;19.088;2023-04-09T14:00:14;1.83;;;1.38;;
78563;SDS011;67856;47.754;19.088;2023-04-09T14:03:17;1.90;;;1.40;;
78563;SDS011;67856;47.754;19.088;2023-04-09T14:06:19;2.40;;;1.70;;
78563;SDS011;67856;47.754;19.088;2023-04-09T14:09:22;1.90;;;1.50;;
78563;SDS011;67856;47.754;19.088;2023-04-09T14:12:24;1.92;;;1.50;;
78563;SDS011;67856;47.754;19.088;2023-04-09T14:15:27;2.00;;;1.48;;
78563;SDS011;67856;47.754;19.088;2023-04-09T14:18:29;1.70;;;1.37;;
78563;SDS011;67856;47.754;19.088;2023-04-09T14:21:33;1.77;;;1.40;;
78563;SDS011;67856;47.754;19.088;2023-04-09T14:24:35;2.25;;;1.58;;
78563;SDS011;67856;47.754;19.088;2023-04-09T14:27:41;1.23;;;0.93;;
78563;SDS011;67856;47.754;19.088;2023-04-09T14:30:43;1.48;;;1.20;;
78563;SDS011;67856;47.754;19.088;2023-04-09T14:33:46;1.70;;;1.00;;
78563;SDS011;67856;47.754;19.088;2023-04-09T14:36:49;1.70;;;1.20;;
78563;SDS011;67856;47.754;19.088;2023-04-09T14:39:51;1.60;;;1.20;;
78563;SDS011;67856;47.754;19.088;2023-04-09T14:42:53;1.30;;;1.10;;
78563;SDS011;67856;47.754;19.088;2023-04-09T14:45:56;1.80;;;1.30;;
78563;SDS011;67856;47.754;19.088;2023-04-09T14:48:58;1.80;;;1.23;;
78563;SDS011;67856;47.754;19.088;2023-04-09T14:52:01;1.30;;;1.20;;
78563;SDS011;67856;47.754;19.088;2023-04-09T14:55:03;1.33;;;1.08;;
78563;SDS011;67856;47.754;19.088;2023-04-09T14:58:06;1.40;;;1.08;;
78563;SDS011;67856;47.754;19.088;2023-04-09T15:01:09;1.63;;;1.27;;
78563;SDS011;67856;47.754;19.088;2023-04-09T15:04:12;1.50;;;1.20;;
78563;SDS011;67856;47.754;19.088;2023-04-09T15:07:14;2.10;;;1.40;;
78563;SDS011;67856;47.754;19.088;2023-04-09T15:10:17;1.90;;;1.40;;
78563;SDS011;67856;47.754;19.088;2023-04-09T15:13:20;1.55;;;1.23;;
78563;SDS011;67856;47.754;19.088;2023-04-09T15:16:22;2.45;;;1.52;;
78563;SDS011;67856;47.754;19.088;2023-04-09T15:19:27;1.73;;;1.40;;
78563;SDS011;67856;47.754;19.088;2023-04-09T15:22:29;2.07;;;1.47;;
78563;SDS011;67856;47.754;19.088;2023-04-09T15:25:32;1.77;;;1.38;;
78563;SDS011;67856;47.754;19.088;2023-04-09T15:28:34;1.77;;;1.35;;
78563;SDS011;67856;47.754;19.088;2023-04-09T15:31:37;1.60;;;1.30;;
78563;SDS011;67856;47.754;19.088;2023-04-09T15:34:42;1.77;;;1.30;;
78563;SDS011;67856;47.754;19.088;2023-04-09T15:37:44;1.93;;;1.23;;
78563;SDS011;67856;47.754;19.088;2023-04-09T15:40:47;1.50;;;1.20;;
78563;SDS011;67856;47.754;19.088;2023-04-09T15:43:49;1.55;;;1.30;;
78563;SDS011;67856;47.754;19.088;2023-04-09T15:46:52;1.75;;;1.25;;
78563;SDS011;67856;47.754;19.088;2023-04-09T15:49:55;1.70;;;1.20;;
78563;SDS011;67856;47.754;19.088;2023-04-09T15:53:00;1.50;;;1.20;;
78563;SDS011;67856;47.754;19.088;2023-04-09T15:56:02;2.50;;;1.30;;
78563;SDS011;67856;47.754;19.088;2023-04-09T15:59:06;1.70;;;1.20;;
78563;SDS011;67856;47.754;19.088;2023-04-09T16:02:09;1.58;;;1.17;;
78563;SDS011;67856;47.754;19.088;2023-04-09T16:05:12;2.20;;;1.50;;
78563;SDS011;67856;47.754;19.088;2023-04-09T16:08:14;1.80;;;1.30;;
78563;SDS011;67856;47.754;19.088;2023-04-09T16:11:17;1.88;;;1.50;;
78563;SDS011;67856;47.754;19.088;2023-04-09T16:14:19;1.88;;;1.30;;
78563;SDS011;67856;47.754;19.088;2023-04-09T16:17:22;1.92;;;1.30;;
78563;SDS011;67856;47.754;19.088;2023-04-09T16:20:24;1.87;;;1.30;;
78563;SDS011;67856;47.754;19.088;2023-04-09T16:23:27;1.73;;;1.33;;
78563;SDS011;67856;47.754;19.088;2023-04-09T16:26:31;1.60;;;1.20;;
78563;SDS011;67856;47.754;19.088;2023-04-09T16:29:34;1.67;;;1.23;;
78563;SDS011;67856;47.754;19.088;2023-04-09T16:32:36;1.80;;;1.20;;
78563;SDS011;67856;47.754;19.088;2023-04-09T16:35:39;1.90;;;1.27;;
78563;SDS011;67856;47.754;19.088;2023-04-09T16:38:41;2.00;;;1.33;;
78563;SDS011;67856;47.754;19.088;2023-04-09T16:41:43;1.77;;;1.40;;
78563;SDS011;67856;47.754;19.088;2023-04-09T16:44:46;1.90;;;1.50;;
78563;SDS011;67856;47.754;19.088;2023-04-09T16:47:50;2.22;;;1.42;;
78563;SDS011;67856;47.754;19.088;2023-04-09T16:50:54;2.23;;;1.70;;
78563;SDS011;67856;47.754;19.088;2023-04-09T16:53:57;3.13;;;2.07;;
78563;SDS011;67856;47.754;19.088;2023-04-09T16:56:59;3.13;;;2.30;;
78563;SDS011;67856;47.754;19.088;2023-04-09T17:00:04;4.30;;;2.35;;
78563;SDS011;67856;47.754;19.088;2023-04-09T17:03:07;3.58;;;2.30;;
78563;SDS011;67856;47.754;19.088;2023-04-09T17:06:10;2.90;;;2.03;;
78563;SDS011;67856;47.754;19.088;2023-04-09T17:09:12;3.70;;;2.60;;
78563;SDS011;67856;47.754;19.088;2023-04-09T17:12:14;4.07;;;2.67;;
78563;SDS011;67856;47.754;19.088;2023-04-09T17:15:18;2.85;;;2.03;;
78563;SDS011;67856;47.754;19.088;2023-04-09T17:18:20;3.10;;;2.40;;
78563;SDS011;67856;47.754;19.088;2023-04-09T17:21:22;2.83;;;1.90;;
78563;SDS011;67856;47.754;19.088;2023-04-09T17:24:25;3.50;;;1.83;;
78563;SDS011;67856;47.754;19.088;2023-04-09T17:27:27;3.60;;;2.20;;
78563;SDS011;67856;47.754;19.088;2023-04-09T17:30:30;3.20;;;2.03;;
78563;SDS011;67856;47.754;19.088;2023-04-09T17:33:34;2.63;;;1.80;;
78563;SDS011;67856;47.754;19.088;2023-04-09T17:36:36;2.33;;;1.73;;
78563;SDS011;67856;47.754;19.088;2023-04-09T17:39:38;2.10;;;1.60;;
78563;SDS011;67856;47.754;19.088;2023-04-09T17:42:41;2.40;;;1.77;;
78563;SDS011;67856;47.754;19.088;2023-04-09T17:45:44;2.65;;;1.95;;
78563;SDS011;67856;47.754;19.088;2023-04-09T17:48:47;3.42;;;2.25;;
78563;SDS011;67856;47.754;19.088;2023-04-09T17:51:49;2.30;;;1.53;;
78563;SDS011;67856;47.754;19.088;2023-04-09T17:54:51;2.00;;;1.40;;
78563;SDS011;67856;47.754;19.088;2023-04-09T17:57:54;2.08;;;1.20;;
78563;SDS011;67856;47.754;19.088;2023-04-09T18:00:56;1.73;;;1.40;;
78563;SDS011;67856;47.754;19.088;2023-04-09T18:04:00;1.70;;;1.20;;
78563;SDS011;67856;47.754;19.088;2023-04-09T18:07:03;1.77;;;1.13;;
78563;SDS011;67856;47.754;19.088;2023-04-09T18:10:05;1.87;;;1.20;;
78563;SDS011;67856;47.754;19.088;2023-04-09T18:13:08;1.50;;;1.10;;
78563;SDS011;67856;47.754;19.088;2023-04-09T18:16:11;1.90;;;1.40;;
78563;SDS011;67856;47.754;19.088;2023-04-09T18:19:13;1.60;;;1.25;;
78563;SDS011;67856;47.754;19.088;2023-04-09T18:22:16;1.40;;;1.10;;
78563;SDS011;67856;47.754;19.088;2023-04-09T18:25:18;1.53;;;1.10;;